createdAt,value
2023-02-13T00:00:48.735Z,16.52
2023-02-13T00:03:16.073Z,16.05
2023-02-13T00:05:43.379Z,17.27
2023-02-13T00:08:10.804Z,15.88
2023-02-13T00:10:38.139Z,16.10
2023-02-13T00:13:05.403Z,15.77
2023-02-13T00:15:32.896Z,16.20
2023-02-13T00:18:00.299Z,15.68
2023-02-13T00:20:27.535Z,16.75
2023-02-13T00:22:54.909Z,14.75
2023-02-13T00:25:22.246Z,16.13
2023-02-13T00:27:53.892Z,14.88
2023-02-13T00:30:21.662Z,16.00
2023-02-13T00:32:48.965Z,14.43
2023-02-13T00:35:16.258Z,14.57
2023-02-13T00:37:43.546Z,14.15
2023-02-13T00:40:12.398Z,13.95
2023-02-13T00:42:39.724Z,14.57
2023-02-13T00:45:07.257Z,14.45
2023-02-13T00:47:34.598Z,14.82
2023-02-13T00:50:01.832Z,13.90
2023-02-13T00:52:29.100Z,14.55
2023-02-13T00:54:56.387Z,15.00
2023-02-13T00:57:23.715Z,14.15
2023-02-13T00:59:51.633Z,14.55
2023-02-13T01:02:19.120Z,14.18
2023-02-13T01:04:46.455Z,13.60
2023-02-13T01:07:15.826Z,13.05
2023-02-13T01:09:44.188Z,13.88
2023-02-13T01:12:11.436Z,13.30
2023-02-13T01:14:38.693Z,13.32
2023-02-13T01:17:05.936Z,13.60
2023-02-13T01:19:33.240Z,13.23
2023-02-13T01:22:00.499Z,14.10
2023-02-13T01:24:30.025Z,13.60
2023-02-13T01:26:57.425Z,13.52
2023-02-13T01:29:24.811Z,13.75
2023-02-13T01:31:52.215Z,12.98
2023-02-13T01:34:19.635Z,13.73
2023-02-13T01:36:46.968Z,13.20
2023-02-13T01:39:14.377Z,12.65
2023-02-13T01:41:41.852Z,13.50
2023-02-13T01:44:46.747Z,13.10
2023-02-13T01:47:37.878Z,12.60
2023-02-13T01:50:13.294Z,12.38
2023-02-13T01:52:52.134Z,12.68
2023-02-13T01:55:22.173Z,12.63
2023-02-13T01:58:08.380Z,12.52
2023-02-13T02:00:37.186Z,13.70
2023-02-13T02:03:16.261Z,12.48
2023-02-13T02:05:43.880Z,12.25
2023-02-13T02:08:14.975Z,12.38
2023-02-13T02:10:42.758Z,12.98
2023-02-13T02:13:17.400Z,12.88
2023-02-13T02:15:45.990Z,13.18
2023-02-13T02:18:18.918Z,13.00
2023-02-13T02:21:07.667Z,12.45
2023-02-13T02:23:53.471Z,12.63
2023-02-13T02:26:42.036Z,12.20
2023-02-13T02:29:38.819Z,13.00
2023-02-13T02:32:41.068Z,12.35
2023-02-13T02:35:19.143Z,11.65
2023-02-13T02:38:37.641Z,12.50
2023-02-13T02:41:43.024Z,12.70
2023-02-13T02:44:27.127Z,13.07
2023-02-13T02:47:50.909Z,12.25
2023-02-13T02:50:21.089Z,11.75
2023-02-13T02:53:09.420Z,12.40
2023-02-13T02:56:00.187Z,12.02
2023-02-13T02:59:06.363Z,11.52
2023-02-13T03:01:53.364Z,11.90
2023-02-13T03:04:53.932Z,12.38
2023-02-13T03:07:21.627Z,12.73
2023-02-13T03:10:11.938Z,12.00
2023-02-13T03:13:04.672Z,12.77
2023-02-13T03:15:32.922Z,12.30
2023-02-13T03:18:19.172Z,12.85
2023-02-13T03:21:14.506Z,12.43
2023-02-13T03:24:31.697Z,12.40
2023-02-13T03:27:08.467Z,11.70
2023-02-13T03:30:08.701Z,12.27
2023-02-13T03:32:47.806Z,11.65
2023-02-13T03:35:45.930Z,11.63
2023-02-13T03:38:56.388Z,11.55
2023-02-13T03:41:40.767Z,11.63
2023-02-13T03:44:25.746Z,11.57
2023-02-13T03:46:57.024Z,12.15
2023-02-13T03:49:59.504Z,12.05
2023-02-13T03:52:39.523Z,11.65
2023-02-13T03:55:49.932Z,11.68
2023-02-13T03:58:53.146Z,11.07
2023-02-13T04:01:24.038Z,11.32
2023-02-13T04:04:01.228Z,11.98
2023-02-13T04:06:36.409Z,11.30
2023-02-13T04:09:04.037Z,11.53
2023-02-13T04:11:52.547Z,11.25
2023-02-13T04:14:25.268Z,11.07
2023-02-13T04:17:06.989Z,10.90
2023-02-13T04:19:35.161Z,11.20
2023-02-13T04:22:03.228Z,11.65
2023-02-13T04:24:30.910Z,11.23
2023-02-13T04:26:59.042Z,11.15
2023-02-13T04:29:27.396Z,11.63
2023-02-13T04:31:54.827Z,11.30
2023-02-13T04:34:22.391Z,11.45
2023-02-13T04:36:49.741Z,11.68
2023-02-13T04:39:17.065Z,10.75
2023-02-13T04:41:44.438Z,11.90
2023-02-13T04:44:11.721Z,11.43
2023-02-13T04:46:38.983Z,11.10
2023-02-13T04:49:06.201Z,11.63
2023-02-13T04:51:33.468Z,11.52
2023-02-13T04:54:00.749Z,11.27
2023-02-13T04:56:28.009Z,10.90
2023-02-13T04:58:56.349Z,10.95
2023-02-13T05:01:23.914Z,11.05
2023-02-13T05:03:51.184Z,12.18
2023-02-13T05:06:18.702Z,11.45
2023-02-13T05:08:45.973Z,10.90
2023-02-13T05:11:13.200Z,10.82
2023-02-13T05:13:40.436Z,11.40
2023-02-13T05:16:07.810Z,11.30
2023-02-13T05:18:35.170Z,11.65
2023-02-13T05:21:21.252Z,11.40
2023-02-13T05:23:48.487Z,11.30
2023-02-13T05:26:15.810Z,11.07
2023-02-13T05:29:01.628Z,11.38
2023-02-13T05:31:29.010Z,11.70
2023-02-13T05:33:56.441Z,12.00
2023-02-13T05:36:23.703Z,11.57
2023-02-13T05:38:50.971Z,11.32
2023-02-13T05:41:18.282Z,11.02
2023-02-13T05:43:45.560Z,11.35
2023-02-13T05:46:12.816Z,11.55
2023-02-13T05:48:40.123Z,10.48
2023-02-13T05:51:08.194Z,11.27
2023-02-13T05:53:35.591Z,11.07
2023-02-13T05:56:04.392Z,11.23
2023-02-13T05:58:32.692Z,11.65
2023-02-13T06:01:00.718Z,10.82
2023-02-13T06:03:31.808Z,10.32
2023-02-13T06:05:59.675Z,11.43
2023-02-13T06:08:27.236Z,11.10
2023-02-13T06:10:54.677Z,11.18
2023-02-13T06:13:21.997Z,10.65
2023-02-13T06:15:50.834Z,11.32
2023-02-13T06:18:18.295Z,11.02
2023-02-13T06:20:45.639Z,10.82
2023-02-13T06:23:12.989Z,10.93
2023-02-13T06:25:40.676Z,11.48
2023-02-13T06:28:08.225Z,11.85
2023-02-13T06:30:35.637Z,11.93
2023-02-13T06:33:02.962Z,11.93
2023-02-13T06:35:30.258Z,12.18
2023-02-13T06:37:57.492Z,12.50
2023-02-13T06:40:24.892Z,12.60
2023-02-13T06:42:52.228Z,12.18
2023-02-13T06:45:19.502Z,11.88
2023-02-13T06:47:48.535Z,11.57
2023-02-13T06:50:18.150Z,12.65
2023-02-13T06:52:50.066Z,12.95
2023-02-13T06:55:18.413Z,13.13
2023-02-13T06:57:45.816Z,12.82
2023-02-13T07:00:14.544Z,13.85
2023-02-13T07:02:43.279Z,13.05
2023-02-13T07:05:11.599Z,13.30
2023-02-13T07:07:40.743Z,13.10
2023-02-13T07:10:10.903Z,13.75
2023-02-13T07:12:38.432Z,14.05
2023-02-13T07:15:06.680Z,13.50
2023-02-13T07:17:34.458Z,13.80
2023-02-13T07:20:01.941Z,14.60
2023-02-13T07:22:30.466Z,14.48
2023-02-13T07:24:58.996Z,14.43
2023-02-13T07:27:29.301Z,14.38
2023-02-13T07:29:59.723Z,14.60
2023-02-13T07:32:27.030Z,14.88
2023-02-13T07:35:01.796Z,13.70
2023-02-13T07:37:31.583Z,13.95
2023-02-13T07:39:59.277Z,14.05
2023-02-13T07:42:26.539Z,14.52
2023-02-13T07:44:53.880Z,14.80
2023-02-13T07:47:21.159Z,15.45
2023-02-13T07:49:48.481Z,15.00
2023-02-13T07:52:15.787Z,15.25
2023-02-13T07:54:47.550Z,14.77
2023-02-13T07:57:16.257Z,15.18
2023-02-13T07:59:43.775Z,15.30
2023-02-13T08:02:14.280Z,15.35
2023-02-13T08:04:46.197Z,14.45
2023-02-13T08:07:15.047Z,14.43
2023-02-13T08:10:03.255Z,15.00
2023-02-13T08:12:31.501Z,14.52
2023-02-13T08:14:58.816Z,14.85
2023-02-13T08:17:26.113Z,14.80
2023-02-13T08:19:53.374Z,14.23
2023-02-13T08:22:20.674Z,15.32
2023-02-13T08:24:47.955Z,15.77
2023-02-13T08:27:16.011Z,15.43
2023-02-13T08:29:43.228Z,13.90
2023-02-13T08:32:10.954Z,15.68
2023-02-13T08:34:38.225Z,14.70
2023-02-13T08:37:05.520Z,14.80
2023-02-13T08:39:32.893Z,15.38
2023-02-13T08:42:00.318Z,16.45
2023-02-13T08:44:27.620Z,14.55
2023-02-13T08:46:54.974Z,14.80
2023-02-13T08:49:23.411Z,14.98
2023-02-13T08:51:51.095Z,14.05
2023-02-13T08:54:18.447Z,15.15
2023-02-13T08:56:45.757Z,14.98
2023-02-13T08:59:13.080Z,15.07
2023-02-13T09:01:40.564Z,14.07
2023-02-13T09:04:07.949Z,15.98
2023-02-13T09:06:35.290Z,14.40
2023-02-13T09:09:04.788Z,14.77
2023-02-13T09:11:32.052Z,13.75
2023-02-13T09:13:59.338Z,14.85
2023-02-13T09:16:26.683Z,14.48
2023-02-13T09:18:54.011Z,14.23
2023-02-13T09:21:25.621Z,14.10
2023-02-13T09:23:55.137Z,13.60
2023-02-13T09:26:22.685Z,13.43
2023-02-13T09:28:50.169Z,13.38
2023-02-13T09:31:20.963Z,13.70
2023-02-13T09:33:50.405Z,13.20
2023-02-13T09:36:24.001Z,13.65
2023-02-13T09:38:56.608Z,13.07
2023-02-13T09:41:28.021Z,14.85
2023-02-13T09:44:33.783Z,15.82
2023-02-13T09:47:28.897Z,16.95
2023-02-13T09:50:14.803Z,15.93
2023-02-13T09:52:45.655Z,16.90
2023-02-13T09:55:40.038Z,17.17
2023-02-13T09:58:21.966Z,16.27
2023-02-13T10:00:57.093Z,17.05
2023-02-13T10:03:42.452Z,16.77
2023-02-13T10:06:16.328Z,17.50
2023-02-13T10:08:49.836Z,16.30
2023-02-13T10:11:45.144Z,17.33
2023-02-13T10:14:32.673Z,17.15
2023-02-13T10:17:07.983Z,17.58
2023-02-13T10:19:50.438Z,16.80
2023-02-13T10:22:26.189Z,17.90
2023-02-13T10:25:00.447Z,17.13
2023-02-13T10:27:40.059Z,16.70
2023-02-13T10:30:17.475Z,16.50
2023-02-13T10:33:19.361Z,17.13
2023-02-13T10:35:56.399Z,17.65
2023-02-13T10:38:25.160Z,18.58
2023-02-13T10:40:58.246Z,18.20
2023-02-13T10:43:30.008Z,18.48
2023-02-13T10:46:15.624Z,17.63
2023-02-13T10:49:03.408Z,17.13
2023-02-13T10:51:55.257Z,18.00
2023-02-13T10:54:51.112Z,19.42
2023-02-13T10:57:23.892Z,19.02
2023-02-13T11:00:21.421Z,18.88
2023-02-13T11:02:48.964Z,19.13
2023-02-13T11:05:30.204Z,18.63
2023-02-13T11:07:59.346Z,18.83
2023-02-13T11:10:27.599Z,18.92
2023-02-13T11:12:55.836Z,19.00
2023-02-13T11:15:26.079Z,18.48
2023-02-13T11:17:56.229Z,19.13
2023-02-13T11:20:38.928Z,18.33
2023-02-13T11:23:30.825Z,18.95
2023-02-13T11:25:58.828Z,17.85
2023-02-13T11:28:29.484Z,18.45
2023-02-13T11:31:12.718Z,17.77
2023-02-13T11:33:40.793Z,18.27
2023-02-13T11:36:16.464Z,18.05
2023-02-13T11:38:44.628Z,18.45
2023-02-13T11:41:18.163Z,18.17
2023-02-13T11:44:01.029Z,18.23
2023-02-13T11:46:46.863Z,18.25
2023-02-13T11:49:26.933Z,17.85
2023-02-13T11:51:57.377Z,17.23
2023-02-13T11:54:44.937Z,17.08
2023-02-13T11:57:23.152Z,18.35
2023-02-13T11:59:53.031Z,16.52
2023-02-13T12:02:24.663Z,16.73
2023-02-13T12:05:11.761Z,16.58
2023-02-13T12:07:39.779Z,16.10
2023-02-13T12:10:18.660Z,14.55
2023-02-13T12:13:14.368Z,15.00
2023-02-13T12:15:43.408Z,14.90
2023-02-13T12:18:35.676Z,14.40
2023-02-13T12:21:03.630Z,14.07
2023-02-13T12:23:57.760Z,14.60
2023-02-13T12:26:45.462Z,13.95
2023-02-13T12:29:40.228Z,13.43
2023-02-13T12:32:19.492Z,12.82
2023-02-13T12:35:11.342Z,13.38
2023-02-13T12:38:06.093Z,12.10
2023-02-13T12:41:07.496Z,11.43
2023-02-13T12:44:11.897Z,11.27
2023-02-13T12:47:10.307Z,10.68
2023-02-13T12:49:46.783Z,9.95
2023-02-13T12:52:31.135Z,9.85
2023-02-13T12:55:13.679Z,9.93
2023-02-13T12:57:58.923Z,9.13
2023-02-13T13:00:41.067Z,9.73
2023-02-13T13:03:32.397Z,9.32
2023-02-13T13:06:20.699Z,9.23
2023-02-13T13:09:13.408Z,9.00
2023-02-13T13:11:57.912Z,8.73
2023-02-13T13:14:36.317Z,8.65
2023-02-13T13:17:06.381Z,9.15
2023-02-13T13:19:49.307Z,9.15
2023-02-13T13:22:33.094Z,8.40
2023-02-13T13:25:19.015Z,9.20
2023-02-13T13:27:59.154Z,9.05
2023-02-13T13:30:37.587Z,8.57
2023-02-13T13:33:25.341Z,8.15
2023-02-13T13:36:23.086Z,7.70
2023-02-13T13:38:53.068Z,7.82
2023-02-13T13:41:38.934Z,7.07
2023-02-13T13:44:49.792Z,7.50
2023-02-13T13:47:38.245Z,7.30
2023-02-13T13:50:17.492Z,7.32
2023-02-13T13:53:06.597Z,7.05
2023-02-13T13:56:09.493Z,7.05
2023-02-13T13:58:52.151Z,6.70
2023-02-13T14:01:25.810Z,6.57
2023-02-13T14:03:59.182Z,6.67
2023-02-13T14:06:47.875Z,6.38
2023-02-13T14:09:38.683Z,6.88
2023-02-13T14:12:24.713Z,6.43
2023-02-13T14:14:53.449Z,6.38
2023-02-13T14:17:43.365Z,6.78
2023-02-13T14:20:33.258Z,6.50
2023-02-13T14:23:41.783Z,6.88
2023-02-13T14:26:17.847Z,6.97
2023-02-13T14:28:50.864Z,7.13
2023-02-13T14:31:27.432Z,7.25
2023-02-13T14:34:15.758Z,6.22
2023-02-13T14:36:45.956Z,6.82
2023-02-13T14:39:32.410Z,6.65
2023-02-13T14:42:20.850Z,7.30
2023-02-13T14:44:57.909Z,6.93
2023-02-13T14:47:56.582Z,7.07
2023-02-13T14:50:45.771Z,7.10
2023-02-13T14:53:26.617Z,6.55
2023-02-13T14:56:13.002Z,7.53
2023-02-13T14:59:00.679Z,6.80
2023-02-13T15:01:35.778Z,7.18
2023-02-13T15:04:12.795Z,7.35
2023-02-13T15:06:45.884Z,7.75
2023-02-13T15:09:39.001Z,7.45
2023-02-13T15:12:25.800Z,7.45
2023-02-13T15:14:53.427Z,6.95
2023-02-13T15:17:24.730Z,7.13
2023-02-13T15:19:55.778Z,8.00
2023-02-13T15:22:35.392Z,7.05
2023-02-13T15:25:03.317Z,7.80
2023-02-13T15:27:33.849Z,7.40
2023-02-13T15:30:18.941Z,7.35
2023-02-13T15:32:53.874Z,6.60
2023-02-13T15:35:31.007Z,7.53
2023-02-13T15:37:59.110Z,7.60
2023-02-13T15:40:29.731Z,6.68
2023-02-13T15:42:58.357Z,6.82
2023-02-13T15:45:28.512Z,6.65
2023-02-13T15:47:56.727Z,6.78
2023-02-13T15:50:35.985Z,6.53
2023-02-13T15:53:09.921Z,6.28
2023-02-13T15:55:38.450Z,6.78
2023-02-13T15:58:06.155Z,6.57
2023-02-13T16:00:37.016Z,6.57
2023-02-13T16:03:07.336Z,6.13
2023-02-13T16:05:41.440Z,5.88
2023-02-13T16:08:38.602Z,6.18
2023-02-13T16:11:14.932Z,5.50
2023-02-13T16:13:59.876Z,5.75
2023-02-13T16:18:56.278Z,5.10
2023-02-13T16:21:31.319Z,4.78
2023-02-13T16:24:04.074Z,5.03
2023-02-13T16:26:31.512Z,5.00
2023-02-13T16:28:58.846Z,5.20
2023-02-13T16:31:26.371Z,4.95
2023-02-13T16:33:53.699Z,5.05
2023-02-13T16:36:29.458Z,4.90
2023-02-13T16:38:56.811Z,4.80
2023-02-13T16:41:26.810Z,5.25
2023-02-13T16:44:04.540Z,5.13
2023-02-13T16:46:42.878Z,5.18
2023-02-13T16:49:10.065Z,5.07
2023-02-13T16:51:53.991Z,5.53
2023-02-13T16:54:29.251Z,4.95
2023-02-13T16:57:14.471Z,4.65
2023-02-13T16:59:47.926Z,5.38
2023-02-13T17:02:18.344Z,4.90
2023-02-13T17:04:51.650Z,5.38
2023-02-13T17:07:28.418Z,5.07
2023-02-13T17:10:04.977Z,5.40
2023-02-13T17:12:37.520Z,5.53
2023-02-13T17:15:07.383Z,5.63
2023-02-13T17:17:34.678Z,5.90
2023-02-13T17:20:04.310Z,5.93
2023-02-13T17:22:34.925Z,5.50
2023-02-13T17:25:04.834Z,6.32
2023-02-13T17:27:32.103Z,5.82
2023-02-13T17:29:59.439Z,6.13
2023-02-13T17:32:28.008Z,6.30
2023-02-13T17:34:55.520Z,6.22
2023-02-13T17:37:27.896Z,6.30
2023-02-13T17:39:55.776Z,6.38
2023-02-13T17:42:28.225Z,6.65
2023-02-13T17:44:57.902Z,6.60
2023-02-13T17:47:26.803Z,6.88
2023-02-13T17:50:02.048Z,7.20
2023-02-13T17:52:32.422Z,6.82
2023-02-13T17:54:59.847Z,7.55
2023-02-13T17:57:27.086Z,7.70
2023-02-13T17:59:55.457Z,7.03
2023-02-13T18:02:24.191Z,7.68
2023-02-13T18:04:51.701Z,7.82
2023-02-13T18:07:20.876Z,7.53
2023-02-13T18:09:48.306Z,7.80
2023-02-13T18:12:22.491Z,8.25
2023-02-13T18:14:51.404Z,8.48
2023-02-13T18:17:19.886Z,8.52
2023-02-13T18:19:47.602Z,8.88
2023-02-13T18:22:15.004Z,8.45
2023-02-13T18:24:42.957Z,8.75
2023-02-13T18:27:12.406Z,8.80
2023-02-13T18:29:40.139Z,8.65
2023-02-13T18:32:10.241Z,8.77
2023-02-13T18:34:39.166Z,8.45
2023-02-13T18:37:07.434Z,8.73
2023-02-13T18:39:34.948Z,9.00
2023-02-13T18:42:02.684Z,10.05
2023-02-13T18:44:30.013Z,9.05
2023-02-13T18:46:57.499Z,10.20
2023-02-13T18:49:25.244Z,10.13
2023-02-13T18:51:52.653Z,10.38
2023-02-13T18:54:21.425Z,10.35
2023-02-13T18:56:48.828Z,10.57
2023-02-13T18:59:16.314Z,10.70
2023-02-13T19:01:45.344Z,10.63
2023-02-13T19:04:13.122Z,10.63
2023-02-13T19:06:41.560Z,10.77
2023-02-13T19:09:09.660Z,10.30
2023-02-13T19:11:38.842Z,11.35
2023-02-13T19:14:06.512Z,10.85
2023-02-13T19:16:36.099Z,10.90
2023-02-13T19:19:06.630Z,11.15
2023-02-13T19:21:36.419Z,10.30
2023-02-13T19:24:05.835Z,11.13
2023-02-13T19:26:33.216Z,11.00
2023-02-13T19:29:00.583Z,12.27
2023-02-13T19:31:30.704Z,11.25
2023-02-13T19:34:00.357Z,11.48
2023-02-13T19:36:29.041Z,10.77
2023-02-13T19:39:01.479Z,11.23
2023-02-13T19:41:29.140Z,11.63
2023-02-13T19:43:56.682Z,11.38
2023-02-13T19:46:29.035Z,11.27
2023-02-13T19:48:56.809Z,10.75
2023-02-13T19:51:27.824Z,11.52
2023-02-13T19:54:04.007Z,11.02
2023-02-13T19:56:35.549Z,10.90
2023-02-13T19:59:03.707Z,11.40
2023-02-13T20:01:31.795Z,11.77
2023-02-13T20:03:59.591Z,11.07
2023-02-13T20:06:32.624Z,11.32
2023-02-13T20:09:01.811Z,11.38
2023-02-13T20:11:29.515Z,11.98
2023-02-13T20:14:04.017Z,11.32
2023-02-13T20:16:33.168Z,11.77
2023-02-13T20:19:07.562Z,12.20
2023-02-13T20:21:35.725Z,11.30
2023-02-13T20:24:03.246Z,11.77
2023-02-13T20:26:31.076Z,11.35
2023-02-13T20:29:01.079Z,11.88
2023-02-13T20:31:29.934Z,11.38
2023-02-13T20:33:58.222Z,12.95
2023-02-13T20:36:28.580Z,11.77
2023-02-13T20:38:59.690Z,11.35
2023-02-13T20:41:30.057Z,12.65
2023-02-13T20:44:06.769Z,11.95
2023-02-13T20:46:36.990Z,11.73
2023-02-13T20:49:05.371Z,11.82
2023-02-13T20:51:32.688Z,11.10
2023-02-13T20:54:00.380Z,11.52
2023-02-13T20:56:28.640Z,13.23
2023-02-13T20:58:58.327Z,11.25
2023-02-13T21:01:40.441Z,11.73
2023-02-13T21:04:11.239Z,11.63
2023-02-13T21:06:40.132Z,11.50
2023-02-13T21:09:09.458Z,11.85
2023-02-13T21:11:38.231Z,11.75
2023-02-13T21:14:06.494Z,11.30
2023-02-13T21:16:37.053Z,11.48
2023-02-13T21:19:13.523Z,10.98
2023-02-13T21:21:44.065Z,11.55
2023-02-13T21:24:17.650Z,11.77
2023-02-13T21:26:46.298Z,10.93
2023-02-13T21:29:13.807Z,11.20
2023-02-13T21:31:47.416Z,11.45
2023-02-13T21:34:18.768Z,10.63
2023-02-13T21:36:46.809Z,10.95
2023-02-13T21:39:15.440Z,10.98
2023-02-13T21:41:46.168Z,10.98
2023-02-13T21:44:15.812Z,10.95
2023-02-13T21:46:44.459Z,11.15
2023-02-13T21:49:18.594Z,11.15
2023-02-13T21:51:46.644Z,11.77
2023-02-13T21:54:14.556Z,11.55
2023-02-13T21:56:42.839Z,10.35
2023-02-13T21:59:14.430Z,10.07
2023-02-13T22:01:42.136Z,10.23
2023-02-13T22:04:10.665Z,10.60
2023-02-13T22:06:39.983Z,10.85
2023-02-13T22:09:10.256Z,10.45
2023-02-13T22:11:37.685Z,10.90
2023-02-13T22:14:07.737Z,10.05
2023-02-13T22:16:37.296Z,9.57
2023-02-13T22:19:05.958Z,11.13
2023-02-13T22:21:34.545Z,9.93
2023-02-13T22:24:02.283Z,10.35
2023-02-13T22:26:31.859Z,11.13
2023-02-13T22:29:08.782Z,10.43
2023-02-13T22:31:37.017Z,10.25
2023-02-13T22:34:06.029Z,9.85
2023-02-13T22:36:38.456Z,9.77
2023-02-13T22:39:06.321Z,9.77
2023-02-13T22:41:33.803Z,9.40
2023-02-13T22:44:01.084Z,10.15
2023-02-13T22:46:31.601Z,8.95
2023-02-13T22:48:59.995Z,10.25
2023-02-13T22:51:31.087Z,10.02
2023-02-13T22:53:59.242Z,9.00
2023-02-13T22:56:28.433Z,9.60
2023-02-13T22:58:55.758Z,9.45
2023-02-13T23:01:25.598Z,9.07
2023-02-13T23:03:53.357Z,9.65
2023-02-13T23:06:21.790Z,9.25
2023-02-13T23:08:52.483Z,8.60
2023-02-13T23:11:40.186Z,8.70
2023-02-13T23:14:07.468Z,9.98
2023-02-13T23:16:53.270Z,8.55
2023-02-13T23:19:22.015Z,9.30
2023-02-13T23:21:49.976Z,8.57
2023-02-13T23:24:17.536Z,8.40
2023-02-13T23:26:45.085Z,8.45
2023-02-13T23:29:12.312Z,8.90
2023-02-13T23:31:39.678Z,8.60
2023-02-13T23:34:07.049Z,8.90
2023-02-13T23:36:35.430Z,8.30
2023-02-13T23:39:02.864Z,8.65
2023-02-13T23:41:30.140Z,8.68
2023-02-13T23:43:57.441Z,8.07
2023-02-13T23:46:24.752Z,8.27
2023-02-13T23:48:52.070Z,8.45
2023-02-13T23:51:21.217Z,8.55
2023-02-13T23:53:48.742Z,8.57
2023-02-13T23:56:16.091Z,8.32
2023-02-13T23:58:43.316Z,8.27
